Carlisle, South Carolina
Current Conditions -  °F | °C
As of 9:15 AM on Sunday 21 Dec 2014 (Local Time) from KDCM Reporting Station
Overcast Overcast  
Wind Chill: 45°   Ceiling: 2300
Heat Index: 45°   Visibility: 10mi
Dew Point: 37°   Wind: 3mph
Humidity: 76%   Direction: 40°NE
Pressure: 30.28"   Gusts: NA
Location:  34.59°N, 81.46°W
Report Text: KDCM 211415Z AUTO 04003KT 10SM OVC023 07/03 A3028 RMK AO2
Loading
Personal Weather Stations






























Interactive Weather Map New forecast layout! Learn more

10-Day Weather Forecast

Advertisements
Track Severe Weather on mobile